sensor_id;sensor_type;location;lat;lon;timestamp;P1;durP1;ratioP1;P2;durP2;ratioP2
67997;SDS011;54773;53.388;-1.504;2024-03-02T00:01:03;19.27;;;10.25;;
67997;SDS011;54773;53.388;-1.504;2024-03-02T00:03:49;14.80;;;9.48;;
67997;SDS011;54773;53.388;-1.504;2024-03-02T00:06:34;15.45;;;8.65;;
67997;SDS011;54773;53.388;-1.504;2024-03-02T00:09:21;15.82;;;9.13;;
67997;SDS011;54773;53.388;-1.504;2024-03-02T00:12:06;13.27;;;8.90;;
67997;SDS011;54773;53.388;-1.504;2024-03-02T00:14:50;13.52;;;7.97;;
67997;SDS011;54773;53.388;-1.504;2024-03-02T00:17:35;13.57;;;8.60;;
67997;SDS011;54773;53.388;-1.504;2024-03-02T00:20:20;13.10;;;8.95;;
67997;SDS011;54773;53.388;-1.504;2024-03-02T00:23:07;13.55;;;8.65;;
67997;SDS011;54773;53.388;-1.504;2024-03-02T00:25:53;13.40;;;9.18;;
67997;SDS011;54773;53.388;-1.504;2024-03-02T00:28:39;17.10;;;10.10;;
67997;SDS011;54773;53.388;-1.504;2024-03-02T00:31:23;15.05;;;9.18;;
67997;SDS011;54773;53.388;-1.504;2024-03-02T00:34:08;14.18;;;8.68;;
67997;SDS011;54773;53.388;-1.504;2024-03-02T00:36:57;16.48;;;9.25;;
67997;SDS011;54773;53.388;-1.504;2024-03-02T00:39:44;15.50;;;9.02;;
67997;SDS011;54773;53.388;-1.504;2024-03-02T00:42:33;14.55;;;9.20;;
67997;SDS011;54773;53.388;-1.504;2024-03-02T00:45:18;15.50;;;9.75;;
67997;SDS011;54773;53.388;-1.504;2024-03-02T00:48:02;16.20;;;9.52;;
67997;SDS011;54773;53.388;-1.504;2024-03-02T00:50:57;16.73;;;9.30;;
67997;SDS011;54773;53.388;-1.504;2024-03-02T00:53:41;15.57;;;9.55;;
67997;SDS011;54773;53.388;-1.504;2024-03-02T00:56:26;17.02;;;8.98;;
67997;SDS011;54773;53.388;-1.504;2024-03-02T00:59:11;14.13;;;8.90;;
67997;SDS011;54773;53.388;-1.504;2024-03-02T01:01:55;15.88;;;9.48;;
67997;SDS011;54773;53.388;-1.504;2024-03-02T01:04:39;15.02;;;10.02;;
67997;SDS011;54773;53.388;-1.504;2024-03-02T01:07:24;14.88;;;9.57;;
67997;SDS011;54773;53.388;-1.504;2024-03-02T01:10:09;16.52;;;10.18;;
67997;SDS011;54773;53.388;-1.504;2024-03-02T01:12:54;15.50;;;9.57;;
67997;SDS011;54773;53.388;-1.504;2024-03-02T01:15:38;15.27;;;9.73;;
67997;SDS011;54773;53.388;-1.504;2024-03-02T01:18:22;17.25;;;11.18;;
67997;SDS011;54773;53.388;-1.504;2024-03-02T01:21:07;17.70;;;9.60;;
67997;SDS011;54773;53.388;-1.504;2024-03-02T01:23:51;15.70;;;10.20;;
67997;SDS011;54773;53.388;-1.504;2024-03-02T01:26:35;14.32;;;9.65;;
67997;SDS011;54773;53.388;-1.504;2024-03-02T01:29:19;16.77;;;9.43;;
67997;SDS011;54773;53.388;-1.504;2024-03-02T01:32:03;16.08;;;9.25;;
67997;SDS011;54773;53.388;-1.504;2024-03-02T01:34:47;18.17;;;9.88;;
67997;SDS011;54773;53.388;-1.504;2024-03-02T01:37:31;17.00;;;10.43;;
67997;SDS011;54773;53.388;-1.504;2024-03-02T01:40:15;17.07;;;10.13;;
67997;SDS011;54773;53.388;-1.504;2024-03-02T01:42:59;15.70;;;9.57;;
67997;SDS011;54773;53.388;-1.504;2024-03-02T01:45:43;17.17;;;9.63;;
67997;SDS011;54773;53.388;-1.504;2024-03-02T01:48:27;15.63;;;9.65;;
67997;SDS011;54773;53.388;-1.504;2024-03-02T01:51:11;12.83;;;8.67;;
67997;SDS011;54773;53.388;-1.504;2024-03-02T01:53:55;13.95;;;9.10;;
67997;SDS011;54773;53.388;-1.504;2024-03-02T01:56:39;16.45;;;9.48;;
67997;SDS011;54773;53.388;-1.504;2024-03-02T01:59:23;13.60;;;8.82;;
67997;SDS011;54773;53.388;-1.504;2024-03-02T02:02:07;16.63;;;9.57;;
67997;SDS011;54773;53.388;-1.504;2024-03-02T02:04:51;17.38;;;10.23;;
67997;SDS011;54773;53.388;-1.504;2024-03-02T02:07:35;17.58;;;11.00;;
67997;SDS011;54773;53.388;-1.504;2024-03-02T02:10:19;20.02;;;12.45;;
67997;SDS011;54773;53.388;-1.504;2024-03-02T02:13:03;17.40;;;11.60;;
67997;SDS011;54773;53.388;-1.504;2024-03-02T02:15:47;17.73;;;11.10;;
67997;SDS011;54773;53.388;-1.504;2024-03-02T02:18:31;15.80;;;10.43;;
67997;SDS011;54773;53.388;-1.504;2024-03-02T02:21:15;18.50;;;11.33;;
67997;SDS011;54773;53.388;-1.504;2024-03-02T02:23:59;15.90;;;11.48;;
67997;SDS011;54773;53.388;-1.504;2024-03-02T02:26:43;16.75;;;11.13;;
67997;SDS011;54773;53.388;-1.504;2024-03-02T02:29:26;16.40;;;11.10;;
67997;SDS011;54773;53.388;-1.504;2024-03-02T02:32:10;17.50;;;11.50;;
67997;SDS011;54773;53.388;-1.504;2024-03-02T02:34:54;17.90;;;10.97;;
67997;SDS011;54773;53.388;-1.504;2024-03-02T02:37:38;18.88;;;10.95;;
67997;SDS011;54773;53.388;-1.504;2024-03-02T02:40:22;15.80;;;10.73;;
67997;SDS011;54773;53.388;-1.504;2024-03-02T02:43:06;14.32;;;11.07;;
67997;SDS011;54773;53.388;-1.504;2024-03-02T02:45:50;19.50;;;11.77;;
67997;SDS011;54773;53.388;-1.504;2024-03-02T02:48:35;14.40;;;10.73;;
67997;SDS011;54773;53.388;-1.504;2024-03-02T02:51:18;14.67;;;9.43;;
67997;SDS011;54773;53.388;-1.504;2024-03-02T02:54:02;15.35;;;10.23;;
67997;SDS011;54773;53.388;-1.504;2024-03-02T02:56:46;13.97;;;9.83;;
67997;SDS011;54773;53.388;-1.504;2024-03-02T02:59:30;14.93;;;10.30;;
67997;SDS011;54773;53.388;-1.504;2024-03-02T03:02:14;16.83;;;10.43;;
67997;SDS011;54773;53.388;-1.504;2024-03-02T03:04:58;16.27;;;11.00;;
67997;SDS011;54773;53.388;-1.504;2024-03-02T03:07:42;18.88;;;11.65;;
67997;SDS011;54773;53.388;-1.504;2024-03-02T03:10:27;17.10;;;11.90;;
67997;SDS011;54773;53.388;-1.504;2024-03-02T03:13:11;20.70;;;12.35;;
67997;SDS011;54773;53.388;-1.504;2024-03-02T03:15:56;18.73;;;12.25;;
67997;SDS011;54773;53.388;-1.504;2024-03-02T03:18:40;17.55;;;11.77;;
67997;SDS011;54773;53.388;-1.504;2024-03-02T03:21:23;19.05;;;13.00;;
67997;SDS011;54773;53.388;-1.504;2024-03-02T03:24:07;20.20;;;12.63;;
67997;SDS011;54773;53.388;-1.504;2024-03-02T03:26:51;19.70;;;12.70;;
67997;SDS011;54773;53.388;-1.504;2024-03-02T03:29:38;16.77;;;12.07;;
67997;SDS011;54773;53.388;-1.504;2024-03-02T03:32:22;20.65;;;11.80;;
67997;SDS011;54773;53.388;-1.504;2024-03-02T03:35:06;17.83;;;11.77;;
67997;SDS011;54773;53.388;-1.504;2024-03-02T03:37:51;20.75;;;12.38;;
67997;SDS011;54773;53.388;-1.504;2024-03-02T03:40:34;16.77;;;12.10;;
67997;SDS011;54773;53.388;-1.504;2024-03-02T03:43:18;17.23;;;12.25;;
67997;SDS011;54773;53.388;-1.504;2024-03-02T03:46:02;18.90;;;12.43;;
67997;SDS011;54773;53.388;-1.504;2024-03-02T03:48:47;18.67;;;11.60;;
67997;SDS011;54773;53.388;-1.504;2024-03-02T03:51:31;23.00;;;12.93;;
67997;SDS011;54773;53.388;-1.504;2024-03-02T03:54:15;16.98;;;12.40;;
67997;SDS011;54773;53.388;-1.504;2024-03-02T03:56:59;20.40;;;12.13;;
67997;SDS011;54773;53.388;-1.504;2024-03-02T03:59:43;23.10;;;13.68;;
67997;SDS011;54773;53.388;-1.504;2024-03-02T04:02:28;24.00;;;14.50;;
67997;SDS011;54773;53.388;-1.504;2024-03-02T04:05:12;21.60;;;12.75;;
67997;SDS011;54773;53.388;-1.504;2024-03-02T04:07:56;19.23;;;13.43;;
67997;SDS011;54773;53.388;-1.504;2024-03-02T04:10:40;22.30;;;13.52;;
67997;SDS011;54773;53.388;-1.504;2024-03-02T04:13:25;18.95;;;12.90;;
67997;SDS011;54773;53.388;-1.504;2024-03-02T04:16:09;23.48;;;14.25;;
67997;SDS011;54773;53.388;-1.504;2024-03-02T04:18:53;24.55;;;14.10;;
67997;SDS011;54773;53.388;-1.504;2024-03-02T04:21:38;19.58;;;14.00;;
67997;SDS011;54773;53.388;-1.504;2024-03-02T04:24:22;22.87;;;14.03;;
67997;SDS011;54773;53.388;-1.504;2024-03-02T04:27:06;23.38;;;14.55;;
67997;SDS011;54773;53.388;-1.504;2024-03-02T04:29:49;21.80;;;14.05;;
67997;SDS011;54773;53.388;-1.504;2024-03-02T04:32:33;24.10;;;14.50;;
67997;SDS011;54773;53.388;-1.504;2024-03-02T04:35:19;22.80;;;15.50;;
67997;SDS011;54773;53.388;-1.504;2024-03-02T04:38:03;24.73;;;16.40;;
67997;SDS011;54773;53.388;-1.504;2024-03-02T04:40:48;25.02;;;16.30;;
67997;SDS011;54773;53.388;-1.504;2024-03-02T04:43:32;23.30;;;16.13;;
67997;SDS011;54773;53.388;-1.504;2024-03-02T04:46:16;32.45;;;18.15;;
67997;SDS011;54773;53.388;-1.504;2024-03-02T04:49:00;24.17;;;15.70;;
67997;SDS011;54773;53.388;-1.504;2024-03-02T04:51:44;26.38;;;16.88;;
67997;SDS011;54773;53.388;-1.504;2024-03-02T04:54:28;24.52;;;16.17;;
67997;SDS011;54773;53.388;-1.504;2024-03-02T04:57:12;26.55;;;17.10;;
67997;SDS011;54773;53.388;-1.504;2024-03-02T04:59:56;27.15;;;16.02;;
67997;SDS011;54773;53.388;-1.504;2024-03-02T05:02:40;25.85;;;17.50;;
67997;SDS011;54773;53.388;-1.504;2024-03-02T05:05:24;28.55;;;16.42;;
67997;SDS011;54773;53.388;-1.504;2024-03-02T05:08:08;27.85;;;17.38;;
67997;SDS011;54773;53.388;-1.504;2024-03-02T05:10:53;32.70;;;18.05;;
67997;SDS011;54773;53.388;-1.504;2024-03-02T05:13:37;30.70;;;18.00;;
67997;SDS011;54773;53.388;-1.504;2024-03-02T05:16:21;29.13;;;19.35;;
67997;SDS011;54773;53.388;-1.504;2024-03-02T05:19:06;33.28;;;19.13;;
67997;SDS011;54773;53.388;-1.504;2024-03-02T05:21:50;31.33;;;18.42;;
67997;SDS011;54773;53.388;-1.504;2024-03-02T05:24:35;31.77;;;18.58;;
67997;SDS011;54773;53.388;-1.504;2024-03-02T05:27:20;31.50;;;19.73;;
67997;SDS011;54773;53.388;-1.504;2024-03-02T05:30:04;32.65;;;18.63;;
67997;SDS011;54773;53.388;-1.504;2024-03-02T05:32:49;34.05;;;19.45;;
67997;SDS011;54773;53.388;-1.504;2024-03-02T05:35:33;31.70;;;20.00;;
67997;SDS011;54773;53.388;-1.504;2024-03-02T05:38:17;32.88;;;19.65;;
67997;SDS011;54773;53.388;-1.504;2024-03-02T05:41:02;33.78;;;20.08;;
67997;SDS011;54773;53.388;-1.504;2024-03-02T05:43:46;35.10;;;19.42;;
67997;SDS011;54773;53.388;-1.504;2024-03-02T05:46:30;34.35;;;19.83;;
67997;SDS011;54773;53.388;-1.504;2024-03-02T05:49:14;37.30;;;20.33;;
67997;SDS011;54773;53.388;-1.504;2024-03-02T05:51:58;33.22;;;19.45;;
67997;SDS011;54773;53.388;-1.504;2024-03-02T05:54:42;37.30;;;21.13;;
67997;SDS011;54773;53.388;-1.504;2024-03-02T05:57:26;37.70;;;22.63;;
67997;SDS011;54773;53.388;-1.504;2024-03-02T06:00:28;38.00;;;21.35;;
67997;SDS011;54773;53.388;-1.504;2024-03-02T06:03:14;42.20;;;22.23;;
67997;SDS011;54773;53.388;-1.504;2024-03-02T06:05:58;41.95;;;22.52;;
67997;SDS011;54773;53.388;-1.504;2024-03-02T06:08:42;42.63;;;21.37;;
67997;SDS011;54773;53.388;-1.504;2024-03-02T06:11:26;42.45;;;22.38;;
67997;SDS011;54773;53.388;-1.504;2024-03-02T06:14:09;45.07;;;22.53;;
67997;SDS011;54773;53.388;-1.504;2024-03-02T06:16:53;50.90;;;22.38;;
67997;SDS011;54773;53.388;-1.504;2024-03-02T06:19:37;47.23;;;21.67;;
67997;SDS011;54773;53.388;-1.504;2024-03-02T06:22:21;48.78;;;22.92;;
67997;SDS011;54773;53.388;-1.504;2024-03-02T06:25:08;43.88;;;23.38;;
67997;SDS011;54773;53.388;-1.504;2024-03-02T06:27:52;34.95;;;18.42;;
67997;SDS011;54773;53.388;-1.504;2024-03-02T06:30:36;30.47;;;16.47;;
67997;SDS011;54773;53.388;-1.504;2024-03-02T06:33:21;30.83;;;15.70;;
67997;SDS011;54773;53.388;-1.504;2024-03-02T06:36:04;30.63;;;15.23;;
67997;SDS011;54773;53.388;-1.504;2024-03-02T06:38:51;30.58;;;15.35;;
67997;SDS011;54773;53.388;-1.504;2024-03-02T06:41:35;30.00;;;15.15;;
67997;SDS011;54773;53.388;-1.504;2024-03-02T06:44:21;37.17;;;16.85;;
67997;SDS011;54773;53.388;-1.504;2024-03-02T06:47:05;46.08;;;17.10;;
67997;SDS011;54773;53.388;-1.504;2024-03-02T06:49:49;29.33;;;15.93;;
67997;SDS011;54773;53.388;-1.504;2024-03-02T06:52:33;47.47;;;16.50;;
67997;SDS011;54773;53.388;-1.504;2024-03-02T06:55:17;34.67;;;15.25;;
67997;SDS011;54773;53.388;-1.504;2024-03-02T06:58:01;36.47;;;15.40;;
67997;SDS011;54773;53.388;-1.504;2024-03-02T07:00:45;33.25;;;15.82;;
67997;SDS011;54773;53.388;-1.504;2024-03-02T07:03:28;112.63;;;20.30;;
67997;SDS011;54773;53.388;-1.504;2024-03-02T07:06:13;42.38;;;16.70;;
67997;SDS011;54773;53.388;-1.504;2024-03-02T07:08:57;43.65;;;17.10;;
67997;SDS011;54773;53.388;-1.504;2024-03-02T07:11:41;38.78;;;16.90;;
67997;SDS011;54773;53.388;-1.504;2024-03-02T07:14:25;91.90;;;19.65;;
67997;SDS011;54773;53.388;-1.504;2024-03-02T07:17:29;60.25;;;18.70;;
67997;SDS011;54773;53.388;-1.504;2024-03-02T07:20:14;138.07;;;24.42;;
67997;SDS011;54773;53.388;-1.504;2024-03-02T07:22:58;50.75;;;17.98;;
67997;SDS011;54773;53.388;-1.504;2024-03-02T07:25:42;60.10;;;19.13;;
67997;SDS011;54773;53.388;-1.504;2024-03-02T07:28:26;90.77;;;22.53;;
67997;SDS011;54773;53.388;-1.504;2024-03-02T07:31:10;117.18;;;22.20;;
67997;SDS011;54773;53.388;-1.504;2024-03-02T07:33:54;95.22;;;20.90;;
67997;SDS011;54773;53.388;-1.504;2024-03-02T07:36:38;134.23;;;23.52;;
67997;SDS011;54773;53.388;-1.504;2024-03-02T07:39:22;55.63;;;18.15;;
67997;SDS011;54773;53.388;-1.504;2024-03-02T07:42:06;96.15;;;21.50;;
67997;SDS011;54773;53.388;-1.504;2024-03-02T07:44:50;106.40;;;20.50;;
67997;SDS011;54773;53.388;-1.504;2024-03-02T07:47:34;73.72;;;17.65;;
67997;SDS011;54773;53.388;-1.504;2024-03-02T07:50:19;34.67;;;16.30;;
67997;SDS011;54773;53.388;-1.504;2024-03-02T07:53:03;67.90;;;18.65;;
67997;SDS011;54773;53.388;-1.504;2024-03-02T07:55:47;39.00;;;14.25;;
67997;SDS011;54773;53.388;-1.504;2024-03-02T07:58:31;29.95;;;13.55;;
67997;SDS011;54773;53.388;-1.504;2024-03-02T08:01:17;57.08;;;15.88;;
67997;SDS011;54773;53.388;-1.504;2024-03-02T08:04:01;28.98;;;12.82;;
67997;SDS011;54773;53.388;-1.504;2024-03-02T08:06:47;23.33;;;12.30;;
67997;SDS011;54773;53.388;-1.504;2024-03-02T08:09:31;25.00;;;13.15;;
67997;SDS011;54773;53.388;-1.504;2024-03-02T08:12:15;27.10;;;13.77;;
67997;SDS011;54773;53.388;-1.504;2024-03-02T08:14:59;29.70;;;13.77;;
67997;SDS011;54773;53.388;-1.504;2024-03-02T08:17:44;27.17;;;13.57;;
67997;SDS011;54773;53.388;-1.504;2024-03-02T08:20:33;31.63;;;13.57;;
67997;SDS011;54773;53.388;-1.504;2024-03-02T08:23:16;23.30;;;12.55;;
67997;SDS011;54773;53.388;-1.504;2024-03-02T08:26:00;25.95;;;11.98;;
67997;SDS011;54773;53.388;-1.504;2024-03-02T08:28:45;22.13;;;11.30;;
67997;SDS011;54773;53.388;-1.504;2024-03-02T08:31:29;24.95;;;13.07;;
67997;SDS011;54773;53.388;-1.504;2024-03-02T08:34:13;42.90;;;14.80;;
67997;SDS011;54773;53.388;-1.504;2024-03-02T08:36:57;26.60;;;14.55;;
67997;SDS011;54773;53.388;-1.504;2024-03-02T08:39:41;30.27;;;15.45;;
67997;SDS011;54773;53.388;-1.504;2024-03-02T08:42:25;29.60;;;15.13;;
67997;SDS011;54773;53.388;-1.504;2024-03-02T08:45:09;26.05;;;14.57;;
67997;SDS011;54773;53.388;-1.504;2024-03-02T08:47:53;42.47;;;15.20;;
67997;SDS011;54773;53.388;-1.504;2024-03-02T08:50:37;39.47;;;15.45;;
67997;SDS011;54773;53.388;-1.504;2024-03-02T08:53:21;30.05;;;15.05;;
67997;SDS011;54773;53.388;-1.504;2024-03-02T08:56:05;30.20;;;12.40;;
67997;SDS011;54773;53.388;-1.504;2024-03-02T08:58:50;18.80;;;9.73;;
67997;SDS011;54773;53.388;-1.504;2024-03-02T09:01:34;19.40;;;11.10;;
67997;SDS011;54773;53.388;-1.504;2024-03-02T09:04:18;19.65;;;10.77;;
67997;SDS011;54773;53.388;-1.504;2024-03-02T09:07:02;24.33;;;10.55;;
67997;SDS011;54773;53.388;-1.504;2024-03-02T09:09:47;17.38;;;9.50;;
67997;SDS011;54773;53.388;-1.504;2024-03-02T09:12:31;16.25;;;8.70;;
67997;SDS011;54773;53.388;-1.504;2024-03-02T09:15:15;19.02;;;9.80;;
67997;SDS011;54773;53.388;-1.504;2024-03-02T09:17:59;16.40;;;9.50;;
67997;SDS011;54773;53.388;-1.504;2024-03-02T09:20:43;22.10;;;9.32;;
67997;SDS011;54773;53.388;-1.504;2024-03-02T09:23:27;39.53;;;10.88;;
67997;SDS011;54773;53.388;-1.504;2024-03-02T09:26:11;24.33;;;8.90;;
67997;SDS011;54773;53.388;-1.504;2024-03-02T09:28:55;14.75;;;7.95;;
67997;SDS011;54773;53.388;-1.504;2024-03-02T09:31:42;17.92;;;7.70;;
67997;SDS011;54773;53.388;-1.504;2024-03-02T09:34:27;16.45;;;8.60;;
67997;SDS011;54773;53.388;-1.504;2024-03-02T09:37:11;21.25;;;8.40;;
67997;SDS011;54773;53.388;-1.504;2024-03-02T09:39:55;17.75;;;8.70;;
67997;SDS011;54773;53.388;-1.504;2024-03-02T09:42:39;18.73;;;9.90;;
67997;SDS011;54773;53.388;-1.504;2024-03-02T09:45:24;19.00;;;8.63;;
67997;SDS011;54773;53.388;-1.504;2024-03-02T09:50:52;14.40;;;8.18;;
67997;SDS011;54773;53.388;-1.504;2024-03-02T09:53:36;15.73;;;7.75;;
67997;SDS011;54773;53.388;-1.504;2024-03-02T09:56:23;12.97;;;7.10;;
67997;SDS011;54773;53.388;-1.504;2024-03-02T09:59:07;10.65;;;7.00;;
67997;SDS011;54773;53.388;-1.504;2024-03-02T10:01:58;13.10;;;8.18;;
67997;SDS011;54773;53.388;-1.504;2024-03-02T10:04:48;15.90;;;6.55;;
67997;SDS011;54773;53.388;-1.504;2024-03-02T10:07:32;17.85;;;8.30;;
67997;SDS011;54773;53.388;-1.504;2024-03-02T10:10:16;21.65;;;9.05;;
67997;SDS011;54773;53.388;-1.504;2024-03-02T10:13:04;12.52;;;6.53;;
67997;SDS011;54773;53.388;-1.504;2024-03-02T10:15:49;16.67;;;6.85;;
67997;SDS011;54773;53.388;-1.504;2024-03-02T10:18:33;12.20;;;5.30;;
67997;SDS011;54773;53.388;-1.504;2024-03-02T10:21:16;14.60;;;5.20;;
67997;SDS011;54773;53.388;-1.504;2024-03-02T10:24:07;12.63;;;6.78;;
67997;SDS011;54773;53.388;-1.504;2024-03-02T10:26:52;12.32;;;5.22;;
67997;SDS011;54773;53.388;-1.504;2024-03-02T10:29:37;10.98;;;4.95;;
67997;SDS011;54773;53.388;-1.504;2024-03-02T10:32:22;13.45;;;5.53;;
67997;SDS011;54773;53.388;-1.504;2024-03-02T10:35:06;37.10;;;9.50;;
67997;SDS011;54773;53.388;-1.504;2024-03-02T10:37:50;12.82;;;5.93;;
67997;SDS011;54773;53.388;-1.504;2024-03-02T10:40:35;15.13;;;6.93;;
67997;SDS011;54773;53.388;-1.504;2024-03-02T10:43:19;19.25;;;8.10;;
67997;SDS011;54773;53.388;-1.504;2024-03-02T10:46:04;17.75;;;7.40;;
67997;SDS011;54773;53.388;-1.504;2024-03-02T10:48:48;16.52;;;8.90;;
67997;SDS011;54773;53.388;-1.504;2024-03-02T10:51:33;13.38;;;7.00;;
67997;SDS011;54773;53.388;-1.504;2024-03-02T10:54:19;13.02;;;5.97;;
67997;SDS011;54773;53.388;-1.504;2024-03-02T10:57:10;18.38;;;6.50;;
67997;SDS011;54773;53.388;-1.504;2024-03-02T11:00:00;14.95;;;6.88;;
67997;SDS011;54773;53.388;-1.504;2024-03-02T11:02:50;24.70;;;7.88;;
67997;SDS011;54773;53.388;-1.504;2024-03-02T11:05:40;14.77;;;6.82;;
67997;SDS011;54773;53.388;-1.504;2024-03-02T11:08:27;15.45;;;6.30;;
67997;SDS011;54773;53.388;-1.504;2024-03-02T11:11:15;78.53;;;9.70;;
67997;SDS011;54773;53.388;-1.504;2024-03-02T11:14:01;13.52;;;5.25;;
67997;SDS011;54773;53.388;-1.504;2024-03-02T11:16:52;17.20;;;5.32;;
67997;SDS011;54773;53.388;-1.504;2024-03-02T11:19:37;15.30;;;5.70;;
67997;SDS011;54773;53.388;-1.504;2024-03-02T11:22:22;12.60;;;4.80;;
67997;SDS011;54773;53.388;-1.504;2024-03-02T11:25:06;11.93;;;5.85;;
67997;SDS011;54773;53.388;-1.504;2024-03-02T11:28:07;41.00;;;8.85;;
67997;SDS011;54773;53.388;-1.504;2024-03-02T11:30:54;24.15;;;7.20;;
67997;SDS011;54773;53.388;-1.504;2024-03-02T11:33:38;31.60;;;7.05;;
67997;SDS011;54773;53.388;-1.504;2024-03-02T11:36:22;16.92;;;5.38;;
67997;SDS011;54773;53.388;-1.504;2024-03-02T11:39:06;21.00;;;5.55;;
67997;SDS011;54773;53.388;-1.504;2024-03-02T11:41:50;13.67;;;4.53;;
67997;SDS011;54773;53.388;-1.504;2024-03-02T11:44:34;17.38;;;5.28;;
67997;SDS011;54773;53.388;-1.504;2024-03-02T11:47:18;12.65;;;4.63;;
67997;SDS011;54773;53.388;-1.504;2024-03-02T11:50:02;15.27;;;5.43;;
67997;SDS011;54773;53.388;-1.504;2024-03-02T11:52:50;19.73;;;5.00;;
67997;SDS011;54773;53.388;-1.504;2024-03-02T11:55:37;13.03;;;4.57;;
67997;SDS011;54773;53.388;-1.504;2024-03-02T11:58:23;13.18;;;4.90;;
67997;SDS011;54773;53.388;-1.504;2024-03-02T12:01:10;16.48;;;5.15;;
67997;SDS011;54773;53.388;-1.504;2024-03-02T12:03:55;14.98;;;5.10;;
67997;SDS011;54773;53.388;-1.504;2024-03-02T12:06:39;12.23;;;5.45;;
67997;SDS011;54773;53.388;-1.504;2024-03-02T12:09:23;12.32;;;4.50;;
67997;SDS011;54773;53.388;-1.504;2024-03-02T12:12:08;12.93;;;4.73;;
67997;SDS011;54773;53.388;-1.504;2024-03-02T12:14:53;12.00;;;5.05;;
67997;SDS011;54773;53.388;-1.504;2024-03-02T12:17:39;15.20;;;4.53;;
67997;SDS011;54773;53.388;-1.504;2024-03-02T12:20:23;14.10;;;3.60;;
67997;SDS011;54773;53.388;-1.504;2024-03-02T12:23:08;11.25;;;3.45;;
67997;SDS011;54773;53.388;-1.504;2024-03-02T12:25:52;17.05;;;3.45;;
67997;SDS011;54773;53.388;-1.504;2024-03-02T12:28:37;15.73;;;3.85;;
67997;SDS011;54773;53.388;-1.504;2024-03-02T12:31:21;8.93;;;3.60;;
67997;SDS011;54773;53.388;-1.504;2024-03-02T12:34:04;13.73;;;4.07;;
67997;SDS011;54773;53.388;-1.504;2024-03-02T12:36:49;12.50;;;4.65;;
67997;SDS011;54773;53.388;-1.504;2024-03-02T12:39:36;9.48;;;3.60;;
67997;SDS011;54773;53.388;-1.504;2024-03-02T12:42:20;10.77;;;3.80;;
67997;SDS011;54773;53.388;-1.504;2024-03-02T12:45:04;9.53;;;3.73;;
67997;SDS011;54773;53.388;-1.504;2024-03-02T12:47:49;8.13;;;3.47;;
67997;SDS011;54773;53.388;-1.504;2024-03-02T12:50:34;6.22;;;3.05;;
67997;SDS011;54773;53.388;-1.504;2024-03-02T12:53:19;8.25;;;3.15;;
67997;SDS011;54773;53.388;-1.504;2024-03-02T12:56:05;6.35;;;2.30;;
67997;SDS011;54773;53.388;-1.504;2024-03-02T12:58:55;3.90;;;1.70;;
67997;SDS011;54773;53.388;-1.504;2024-03-02T13:01:49;4.40;;;1.60;;
67997;SDS011;54773;53.388;-1.504;2024-03-02T13:04:34;4.10;;;1.45;;
67997;SDS011;54773;53.388;-1.504;2024-03-02T13:07:18;3.08;;;1.30;;
67997;SDS011;54773;53.388;-1.504;2024-03-02T13:10:04;3.05;;;1.13;;
67997;SDS011;54773;53.388;-1.504;2024-03-02T13:12:49;2.65;;;1.20;;
67997;SDS011;54773;53.388;-1.504;2024-03-02T13:15:34;3.50;;;1.13;;
67997;SDS011;54773;53.388;-1.504;2024-03-02T13:18:18;3.47;;;1.00;;
67997;SDS011;54773;53.388;-1.504;2024-03-02T13:21:02;2.25;;;0.90;;
67997;SDS011;54773;53.388;-1.504;2024-03-02T13:23:47;3.28;;;1.30;;
67997;SDS011;54773;53.388;-1.504;2024-03-02T13:26:31;2.53;;;1.10;;
67997;SDS011;54773;53.388;-1.504;2024-03-02T13:29:15;3.97;;;1.50;;
67997;SDS011;54773;53.388;-1.504;2024-03-02T13:32:00;3.38;;;1.30;;
67997;SDS011;54773;53.388;-1.504;2024-03-02T13:34:44;5.97;;;1.45;;
67997;SDS011;54773;53.388;-1.504;2024-03-02T13:37:28;2.30;;;1.17;;
67997;SDS011;54773;53.388;-1.504;2024-03-02T13:40:12;4.53;;;1.40;;
67997;SDS011;54773;53.388;-1.504;2024-03-02T13:43:02;2.90;;;1.10;;
67997;SDS011;54773;53.388;-1.504;2024-03-02T13:45:47;3.65;;;1.40;;
67997;SDS011;54773;53.388;-1.504;2024-03-02T13:48:31;3.22;;;1.27;;
67997;SDS011;54773;53.388;-1.504;2024-03-02T13:51:16;3.08;;;1.30;;
67997;SDS011;54773;53.388;-1.504;2024-03-02T13:54:00;2.47;;;1.10;;
67997;SDS011;54773;53.388;-1.504;2024-03-02T13:56:46;3.95;;;1.42;;
67997;SDS011;54773;53.388;-1.504;2024-03-02T13:59:30;4.47;;;1.50;;
67997;SDS011;54773;53.388;-1.504;2024-03-02T14:02:14;4.05;;;1.60;;
67997;SDS011;54773;53.388;-1.504;2024-03-02T14:04:58;3.38;;;1.33;;
67997;SDS011;54773;53.388;-1.504;2024-03-02T14:07:43;2.45;;;1.17;;
67997;SDS011;54773;53.388;-1.504;2024-03-02T14:10:28;2.22;;;1.02;;
67997;SDS011;54773;53.388;-1.504;2024-03-02T14:13:12;3.33;;;1.13;;
67997;SDS011;54773;53.388;-1.504;2024-03-02T14:15:56;2.43;;;0.93;;
67997;SDS011;54773;53.388;-1.504;2024-03-02T14:18:41;3.10;;;1.25;;
67997;SDS011;54773;53.388;-1.504;2024-03-02T14:21:25;3.50;;;1.05;;
67997;SDS011;54773;53.388;-1.504;2024-03-02T14:24:09;3.90;;;1.17;;
67997;SDS011;54773;53.388;-1.504;2024-03-02T14:26:53;2.33;;;1.10;;
67997;SDS011;54773;53.388;-1.504;2024-03-02T14:29:37;2.33;;;1.05;;
67997;SDS011;54773;53.388;-1.504;2024-03-02T14:32:23;3.40;;;1.20;;
67997;SDS011;54773;53.388;-1.504;2024-03-02T14:35:07;3.45;;;1.60;;
67997;SDS011;54773;53.388;-1.504;2024-03-02T14:37:53;2.78;;;1.25;;
67997;SDS011;54773;53.388;-1.504;2024-03-02T14:40:38;2.28;;;1.10;;
67997;SDS011;54773;53.388;-1.504;2024-03-02T14:43:22;3.85;;;1.40;;
67997;SDS011;54773;53.388;-1.504;2024-03-02T14:46:06;2.88;;;1.40;;
67997;SDS011;54773;53.388;-1.504;2024-03-02T14:48:54;2.85;;;1.55;;
67997;SDS011;54773;53.388;-1.504;2024-03-02T14:51:38;4.30;;;1.20;;
67997;SDS011;54773;53.388;-1.504;2024-03-02T14:54:22;3.10;;;1.40;;
67997;SDS011;54773;53.388;-1.504;2024-03-02T14:57:06;3.35;;;1.35;;
67997;SDS011;54773;53.388;-1.504;2024-03-02T14:59:50;2.45;;;1.23;;
67997;SDS011;54773;53.388;-1.504;2024-03-02T15:02:34;2.58;;;1.20;;
67997;SDS011;54773;53.388;-1.504;2024-03-02T15:05:18;3.25;;;1.50;;
67997;SDS011;54773;53.388;-1.504;2024-03-02T15:08:02;3.47;;;1.52;;
67997;SDS011;54773;53.388;-1.504;2024-03-02T15:10:48;3.00;;;1.23;;
67997;SDS011;54773;53.388;-1.504;2024-03-02T15:13:32;3.28;;;1.38;;
67997;SDS011;54773;53.388;-1.504;2024-03-02T15:16:17;3.42;;;1.90;;
67997;SDS011;54773;53.388;-1.504;2024-03-02T15:19:01;2.80;;;1.42;;
67997;SDS011;54773;53.388;-1.504;2024-03-02T15:21:46;2.90;;;1.23;;
67997;SDS011;54773;53.388;-1.504;2024-03-02T15:24:30;1.95;;;1.08;;
67997;SDS011;54773;53.388;-1.504;2024-03-02T15:27:14;3.35;;;1.50;;
67997;SDS011;54773;53.388;-1.504;2024-03-02T15:29:58;4.05;;;1.65;;
67997;SDS011;54773;53.388;-1.504;2024-03-02T15:32:42;3.90;;;2.10;;
67997;SDS011;54773;53.388;-1.504;2024-03-02T15:35:26;4.43;;;2.15;;
67997;SDS011;54773;53.388;-1.504;2024-03-02T15:38:10;3.83;;;1.65;;
67997;SDS011;54773;53.388;-1.504;2024-03-02T15:40:58;5.38;;;2.00;;
67997;SDS011;54773;53.388;-1.504;2024-03-02T15:43:42;4.10;;;1.90;;
67997;SDS011;54773;53.388;-1.504;2024-03-02T15:46:26;3.97;;;1.75;;
67997;SDS011;54773;53.388;-1.504;2024-03-02T15:49:10;3.75;;;1.90;;
67997;SDS011;54773;53.388;-1.504;2024-03-02T15:51:54;3.60;;;1.80;;
67997;SDS011;54773;53.388;-1.504;2024-03-02T15:54:38;4.00;;;2.03;;
67997;SDS011;54773;53.388;-1.504;2024-03-02T15:57:22;6.40;;;3.20;;
67997;SDS011;54773;53.388;-1.504;2024-03-02T16:00:07;2.95;;;1.60;;
67997;SDS011;54773;53.388;-1.504;2024-03-02T16:02:51;2.92;;;1.33;;